createdAt,value
2023-03-14T00:02:04.906Z,87.90
2023-03-14T00:04:32.906Z,85.70
2023-03-14T00:07:00.866Z,85.80
2023-03-14T00:09:30.673Z,87.00
2023-03-14T00:12:07.891Z,87.70
2023-03-14T00:14:36.010Z,86.10
2023-03-14T00:17:03.974Z,85.20
2023-03-14T00:19:31.986Z,86.30
2023-03-14T00:21:59.979Z,87.30
2023-03-14T00:24:27.944Z,86.40
2023-03-14T00:26:55.935Z,86.60
2023-03-14T00:29:25.301Z,85.90
2023-03-14T00:31:55.222Z,83.40
2023-03-14T00:34:23.197Z,83.70
2023-03-14T00:36:51.183Z,83.40
2023-03-14T00:39:19.140Z,82.40
2023-03-14T00:41:47.108Z,81.20
2023-03-14T00:44:15.107Z,81.30
2023-03-14T00:46:44.541Z,80.50
2023-03-14T00:49:12.556Z,81.70
2023-03-14T00:51:40.534Z,82.30
2023-03-14T00:54:08.521Z,83.00
2023-03-14T00:56:36.465Z,82.80
2023-03-14T00:59:04.475Z,79.80
2023-03-14T01:01:32.559Z,78.20
2023-03-14T01:04:01.923Z,79.40
2023-03-14T01:06:30.882Z,79.40
2023-03-14T01:08:59.864Z,76.70
2023-03-14T01:11:29.808Z,72.20
2023-03-14T01:13:58.050Z,76.30
2023-03-14T01:16:32.589Z,78.00
2023-03-14T01:19:02.073Z,77.10
2023-03-14T01:21:32.271Z,75.20
2023-03-14T01:24:01.453Z,75.10
2023-03-14T01:26:34.173Z,77.30
2023-03-14T01:29:02.700Z,76.80
2023-03-14T01:31:30.679Z,77.30
2023-03-14T01:33:58.868Z,78.00
2023-03-14T01:36:30.427Z,79.30
2023-03-14T01:38:59.499Z,79.00
2023-03-14T01:41:28.008Z,74.80
2023-03-14T01:43:56.039Z,75.70
2023-03-14T01:46:34.142Z,73.70
2023-03-14T01:49:06.644Z,76.10
2023-03-14T01:51:42.619Z,77.50
2023-03-14T01:54:16.700Z,76.20
2023-03-14T01:56:49.397Z,74.30
2023-03-14T01:59:17.559Z,76.60
2023-03-14T02:01:48.782Z,75.30
2023-03-14T02:04:19.300Z,73.80
2023-03-14T02:06:53.383Z,73.60
2023-03-14T02:09:22.385Z,74.80
2023-03-14T02:11:51.742Z,73.50
2023-03-14T02:14:32.732Z,74.90
2023-03-14T02:17:02.058Z,77.70
2023-03-14T02:19:46.319Z,77.00
2023-03-14T02:22:18.510Z,75.40
2023-03-14T02:24:53.681Z,74.90
2023-03-14T02:27:23.402Z,73.80
2023-03-14T02:29:54.581Z,75.30
2023-03-14T02:32:24.872Z,75.60
2023-03-14T02:34:56.685Z,74.10
2023-03-14T02:37:27.970Z,75.50
2023-03-14T02:39:56.073Z,74.20
2023-03-14T02:42:25.579Z,75.20
2023-03-14T02:44:55.806Z,75.00
2023-03-14T02:47:31.029Z,76.20
2023-03-14T02:50:08.732Z,74.20
2023-03-14T02:52:36.749Z,74.60
2023-03-14T02:55:05.178Z,74.20
2023-03-14T02:57:34.562Z,73.10
2023-03-14T03:00:04.015Z,73.30
2023-03-14T03:02:32.153Z,72.50
2023-03-14T03:05:00.319Z,72.70
2023-03-14T03:07:28.459Z,72.20
2023-03-14T03:09:56.436Z,73.90
2023-03-14T03:12:24.469Z,75.70
2023-03-14T03:14:53.765Z,70.80
2023-03-14T03:17:21.870Z,73.50
2023-03-14T03:19:49.867Z,67.60
2023-03-14T03:22:17.879Z,67.70
2023-03-14T03:24:46.317Z,68.50
2023-03-14T03:27:14.293Z,69.20
2023-03-14T03:29:42.272Z,69.40
2023-03-14T03:32:11.599Z,63.90
2023-03-14T03:34:39.539Z,66.00
2023-03-14T03:37:07.497Z,65.60
2023-03-14T03:39:35.445Z,64.80
2023-03-14T03:42:03.456Z,67.60
2023-03-14T03:44:31.440Z,66.10
2023-03-14T03:46:59.476Z,63.80
2023-03-14T03:49:32.303Z,67.40
2023-03-14T03:52:00.618Z,64.30
2023-03-14T03:54:29.804Z,66.80
2023-03-14T03:56:57.866Z,68.60
2023-03-14T03:59:26.307Z,65.40
2023-03-14T04:01:54.436Z,64.30
2023-03-14T04:04:22.623Z,65.90
2023-03-14T04:06:51.884Z,65.00
2023-03-14T04:09:19.821Z,59.00
2023-03-14T04:11:47.886Z,56.90
2023-03-14T04:14:16.035Z,60.90
2023-03-14T04:16:44.363Z,62.70
2023-03-14T04:19:12.500Z,61.90
2023-03-14T04:21:41.599Z,59.20
2023-03-14T04:24:11.006Z,62.00
2023-03-14T04:26:39.062Z,60.10
2023-03-14T04:29:07.204Z,58.60
2023-03-14T04:31:35.352Z,59.70
2023-03-14T04:34:03.490Z,59.50
2023-03-14T04:36:31.546Z,58.00
2023-03-14T04:38:59.662Z,57.80
2023-03-14T04:41:29.117Z,57.50
2023-03-14T04:43:57.210Z,58.40
2023-03-14T04:46:25.331Z,59.00
2023-03-14T04:48:53.469Z,57.90
2023-03-14T04:51:24.343Z,60.90
2023-03-14T04:53:52.418Z,58.90
2023-03-14T04:56:20.447Z,57.00
2023-03-14T04:58:49.876Z,55.00
2023-03-14T05:01:18.830Z,55.30
2023-03-14T05:03:46.981Z,54.40
2023-03-14T05:06:15.066Z,51.30
2023-03-14T05:08:43.169Z,53.40
2023-03-14T05:11:12.994Z,57.10
2023-03-14T05:13:41.244Z,54.00
2023-03-14T05:16:12.868Z,53.40
2023-03-14T05:18:41.063Z,53.00
2023-03-14T05:21:09.278Z,54.80
2023-03-14T05:23:37.301Z,52.70
2023-03-14T05:26:05.570Z,51.50
2023-03-14T05:28:33.637Z,53.50
2023-03-14T05:31:01.741Z,52.00
2023-03-14T05:33:31.174Z,48.50
2023-03-14T05:35:59.383Z,52.20
2023-03-14T05:38:27.629Z,48.10
2023-03-14T05:40:55.676Z,48.40
2023-03-14T05:43:23.737Z,49.90
2023-03-14T05:45:51.819Z,48.60
2023-03-14T05:48:19.882Z,50.90
2023-03-14T05:50:49.438Z,50.40
2023-03-14T05:53:17.533Z,49.10
2023-03-14T05:55:45.583Z,48.90
2023-03-14T05:58:13.655Z,46.30
2023-03-14T06:00:41.737Z,49.60
2023-03-14T06:03:09.867Z,50.60
2023-03-14T06:05:38.022Z,49.00
2023-03-14T06:08:07.570Z,46.40
2023-03-14T06:10:37.297Z,45.40
2023-03-14T06:13:05.770Z,46.70
2023-03-14T06:15:34.563Z,49.50
2023-03-14T06:18:02.642Z,46.40
2023-03-14T06:20:30.799Z,45.30
2023-03-14T06:22:58.952Z,49.20
2023-03-14T06:25:28.447Z,46.00
2023-03-14T06:27:56.487Z,45.60
2023-03-14T06:30:24.735Z,45.00
2023-03-14T06:32:52.842Z,45.40
2023-03-14T06:35:21.424Z,47.00
2023-03-14T06:37:49.660Z,50.30
2023-03-14T06:40:19.347Z,50.40
2023-03-14T06:42:49.485Z,48.50
2023-03-14T06:45:17.920Z,48.50
2023-03-14T06:47:45.936Z,48.60
2023-03-14T06:50:13.982Z,50.00
2023-03-14T06:52:47.150Z,46.20
2023-03-14T06:55:15.706Z,47.40
2023-03-14T06:57:44.974Z,46.50
2023-03-14T07:00:16.343Z,44.20
2023-03-14T07:02:44.387Z,46.80
2023-03-14T07:05:12.736Z,46.70
2023-03-14T07:07:40.865Z,47.10
2023-03-14T07:10:10.516Z,46.80
2023-03-14T07:12:38.627Z,46.80
2023-03-14T07:15:19.980Z,43.20
2023-03-14T07:17:50.058Z,42.50
2023-03-14T07:20:18.820Z,43.20
2023-03-14T07:22:50.050Z,41.00
2023-03-14T07:25:18.514Z,41.40
2023-03-14T07:27:47.848Z,42.70
2023-03-14T07:30:16.822Z,39.10
2023-03-14T07:32:44.997Z,43.10
2023-03-14T07:35:14.615Z,43.20
2023-03-14T07:37:42.689Z,44.30
2023-03-14T07:40:14.280Z,44.00
2023-03-14T07:42:42.490Z,36.50
2023-03-14T07:45:12.351Z,34.30
2023-03-14T07:47:40.693Z,35.90
2023-03-14T07:50:10.209Z,33.60
2023-03-14T07:52:39.715Z,34.20
2023-03-14T07:55:08.620Z,34.70
2023-03-14T07:57:36.828Z,32.30
2023-03-14T08:00:06.856Z,31.50
2023-03-14T08:02:34.968Z,33.50
2023-03-14T08:05:03.000Z,29.10
2023-03-14T08:07:31.241Z,33.70
2023-03-14T08:10:00.699Z,27.80
2023-03-14T08:12:28.899Z,30.20
2023-03-14T08:14:57.066Z,33.40
2023-03-14T08:17:25.982Z,31.20
2023-03-14T08:19:55.445Z,29.30
2023-03-14T08:22:23.565Z,26.80
2023-03-14T08:24:51.648Z,26.50
2023-03-14T08:27:21.196Z,28.30
2023-03-14T08:29:49.264Z,26.60
2023-03-14T08:32:17.383Z,24.80
2023-03-14T08:34:45.455Z,26.20
2023-03-14T08:37:25.896Z,22.30
2023-03-14T08:39:55.121Z,21.90
2023-03-14T08:42:24.511Z,22.40
2023-03-14T08:44:53.527Z,21.20
2023-03-14T08:47:21.600Z,20.80
2023-03-14T08:49:49.794Z,20.50
2023-03-14T08:52:18.139Z,21.00
2023-03-14T08:54:46.659Z,21.00
2023-03-14T08:57:15.098Z,22.40
2023-03-14T08:59:44.819Z,23.00
2023-03-14T09:02:14.129Z,22.80
2023-03-14T09:04:42.250Z,24.20
2023-03-14T09:07:10.276Z,26.20
2023-03-14T09:09:45.913Z,25.30
2023-03-14T09:13:10.305Z,25.70
2023-03-14T09:16:17.921Z,26.40
2023-03-14T09:23:56.109Z,26.20
2023-03-14T09:26:24.214Z,25.20
2023-03-14T09:28:52.322Z,24.30
2023-03-14T09:31:21.806Z,22.50
2023-03-14T09:33:49.845Z,23.60
2023-03-14T09:36:18.059Z,21.60
2023-03-14T09:38:46.131Z,22.00
2023-03-14T09:41:18.705Z,21.30
2023-03-14T09:43:51.989Z,22.20
2023-03-14T09:46:22.742Z,22.60
2023-03-14T09:48:50.920Z,21.50
2023-03-14T09:51:22.704Z,21.60
2023-03-14T09:53:52.648Z,21.70
2023-03-14T09:56:23.636Z,23.60
2023-03-14T09:58:55.655Z,23.80
2023-03-14T10:01:31.109Z,22.10
2023-03-14T10:04:03.972Z,21.90
2023-03-14T10:06:32.881Z,22.90
2023-03-14T10:09:00.983Z,23.10
2023-03-14T10:11:29.076Z,23.20
2023-03-14T10:14:08.848Z,21.90
2023-03-14T10:16:42.970Z,22.00
2023-03-14T10:19:13.806Z,20.80
2023-03-14T10:21:43.525Z,20.70
2023-03-14T10:24:29.477Z,20.00
2023-03-14T10:27:02.359Z,20.20
2023-03-14T10:29:31.599Z,19.80
2023-03-14T10:32:03.847Z,20.20
2023-03-14T10:34:33.531Z,21.10
2023-03-14T10:37:10.055Z,19.80
2023-03-14T10:39:44.924Z,20.00
2023-03-14T10:42:22.132Z,20.70
2023-03-14T10:44:56.983Z,21.40
2023-03-14T10:47:29.294Z,19.80
2023-03-14T10:50:16.743Z,20.70
2023-03-14T10:53:02.028Z,20.30
2023-03-14T10:55:41.474Z,20.40
2023-03-14T10:58:23.148Z,22.10
2023-03-14T11:00:58.291Z,21.50
2023-03-14T11:03:31.826Z,21.50
2023-03-14T11:06:04.780Z,22.00
2023-03-14T11:08:39.891Z,22.40
2023-03-14T11:11:18.838Z,25.70
2023-03-14T11:14:00.901Z,24.30
2023-03-14T11:16:36.775Z,27.20
2023-03-14T11:19:40.984Z,26.70
2023-03-14T11:22:16.454Z,26.80
2023-03-14T11:24:58.831Z,28.50
2023-03-14T11:27:34.031Z,27.60
2023-03-14T11:30:14.517Z,29.70
2023-03-14T11:32:47.399Z,27.60
2023-03-14T11:35:24.773Z,30.90
2023-03-14T11:37:57.415Z,32.90
2023-03-14T11:40:28.857Z,33.00
2023-03-14T11:43:02.952Z,31.80
2023-03-14T11:45:36.284Z,33.20
2023-03-14T11:48:20.103Z,31.80
2023-03-14T11:50:53.936Z,34.80
2023-03-14T11:53:28.065Z,36.50
2023-03-14T11:55:56.071Z,36.10
2023-03-14T11:58:28.430Z,31.70
2023-03-14T12:00:58.767Z,33.60
2023-03-14T12:03:37.501Z,34.60
2023-03-14T12:06:19.144Z,37.50
2023-03-14T12:08:52.992Z,39.50
2023-03-14T12:11:27.724Z,43.50
2023-03-14T12:13:56.001Z,46.20
2023-03-14T12:16:41.996Z,50.20
2023-03-14T12:19:32.859Z,54.50
2023-03-14T12:22:09.394Z,57.50
2023-03-14T12:24:40.133Z,55.00
2023-03-14T12:27:14.836Z,50.00
2023-03-14T12:30:17.442Z,45.50
2023-03-14T12:33:05.640Z,41.80
2023-03-14T12:35:37.156Z,35.40
2023-03-14T12:38:11.707Z,38.20
2023-03-14T12:40:43.560Z,34.00
2023-03-14T12:43:28.324Z,37.20
2023-03-14T12:46:22.049Z,26.00
2023-03-14T12:48:51.642Z,23.60
2023-03-14T12:51:22.490Z,15.20
2023-03-14T12:54:23.328Z,16.80
2023-03-14T12:57:08.532Z,14.70
2023-03-14T12:59:38.391Z,14.70
2023-03-14T13:02:27.453Z,16.60
2023-03-14T13:05:04.191Z,12.40
2023-03-14T13:07:36.681Z,12.70
2023-03-14T13:10:20.147Z,12.50
2023-03-14T13:12:53.098Z,12.50
2023-03-14T13:15:25.614Z,12.40
2023-03-14T13:17:56.742Z,12.60
2023-03-14T13:20:31.182Z,11.70
2023-03-14T13:22:59.299Z,11.90
2023-03-14T13:25:32.469Z,12.70
2023-03-14T13:28:01.181Z,11.80
2023-03-14T13:30:30.917Z,11.70
2023-03-14T13:32:59.264Z,12.30
2023-03-14T13:35:30.299Z,12.00
2023-03-14T13:38:16.137Z,13.30
2023-03-14T13:40:47.537Z,12.50
2023-03-14T13:43:20.114Z,12.10
2023-03-14T13:45:54.042Z,12.20
2023-03-14T13:48:23.314Z,13.60
2023-03-14T13:50:56.652Z,15.90
2023-03-14T13:53:26.077Z,17.00
2023-03-14T13:58:30.079Z,19.40
2023-03-14T14:01:04.492Z,22.00
2023-03-14T14:03:34.877Z,21.00
2023-03-14T14:06:03.131Z,23.60
2023-03-14T14:08:32.110Z,23.00
2023-03-14T14:11:06.218Z,21.90
2023-03-14T14:13:37.293Z,24.50
2023-03-14T14:16:06.546Z,23.60
2023-03-14T14:18:36.474Z,21.70
2023-03-14T14:21:05.329Z,22.80
2023-03-14T14:23:33.595Z,20.90
2023-03-14T14:26:02.990Z,21.00
2023-03-14T14:28:33.355Z,22.80
2023-03-14T14:31:20.809Z,20.10
2023-03-14T14:33:56.597Z,21.60
2023-03-14T14:36:27.364Z,19.90
2023-03-14T14:38:59.548Z,20.70
2023-03-14T14:41:34.643Z,20.20
2023-03-14T14:44:04.869Z,19.20
2023-03-14T14:46:35.536Z,19.40
2023-03-14T14:49:11.491Z,18.70
2023-03-14T14:51:44.443Z,19.00
2023-03-14T14:54:16.305Z,18.40
2023-03-14T14:56:51.506Z,19.10
2023-03-14T14:59:30.030Z,18.10
2023-03-14T15:01:59.689Z,17.20
2023-03-14T15:04:28.683Z,17.30
2023-03-14T15:06:56.777Z,16.00
2023-03-14T15:09:25.141Z,15.00
2023-03-14T15:11:54.504Z,16.40
2023-03-14T15:14:22.689Z,15.30
2023-03-14T15:16:50.780Z,16.10
2023-03-14T15:19:25.488Z,16.10
2023-03-14T15:21:54.593Z,16.10
2023-03-14T15:24:23.025Z,18.10
2023-03-14T15:26:51.135Z,11.70
2023-03-14T15:29:20.774Z,11.40
2023-03-14T15:31:48.930Z,15.70
2023-03-14T15:34:17.703Z,13.00
2023-03-14T15:36:45.914Z,12.30
2023-03-14T15:39:14.094Z,15.30
2023-03-14T15:41:42.143Z,12.80
2023-03-14T15:44:10.214Z,14.10
2023-03-14T15:46:39.713Z,13.80
2023-03-14T15:49:07.782Z,13.80
2023-03-14T15:51:35.847Z,13.90
2023-03-14T15:54:04.134Z,14.40
2023-03-14T15:56:32.382Z,13.90
2023-03-14T15:59:01.047Z,14.10
2023-03-14T16:01:29.193Z,12.80
2023-03-14T16:03:58.687Z,13.30
2023-03-14T16:06:27.266Z,13.30
2023-03-14T16:08:55.378Z,13.30
2023-03-14T16:11:23.459Z,13.30
2023-03-14T16:13:53.163Z,13.10
2023-03-14T16:16:21.357Z,15.00
2023-03-14T16:18:49.409Z,14.60
2023-03-14T16:21:20.776Z,16.50
2023-03-14T16:23:49.485Z,15.60
2023-03-14T16:26:20.077Z,16.70
2023-03-14T16:28:49.277Z,16.40
2023-03-14T16:31:19.049Z,17.90
2023-03-14T16:33:47.245Z,17.70
2023-03-14T16:36:16.026Z,17.40
2023-03-14T16:38:46.893Z,18.80
2023-03-14T16:41:16.546Z,18.90
2023-03-14T16:43:45.832Z,20.40
2023-03-14T16:46:16.801Z,21.40
2023-03-14T16:48:45.719Z,20.90
2023-03-14T16:51:14.164Z,21.60
2023-03-14T16:53:42.212Z,21.70
2023-03-14T16:56:11.981Z,21.80
2023-03-14T16:58:40.622Z,32.40
2023-03-14T17:01:11.487Z,37.20
2023-03-14T17:03:41.333Z,25.50
2023-03-14T17:06:11.668Z,41.30
2023-03-14T17:08:39.980Z,44.80
2023-03-14T17:11:08.288Z,37.90
2023-03-14T17:13:38.574Z,43.30
2023-03-14T17:16:07.553Z,48.60
2023-03-14T17:18:36.568Z,49.80
2023-03-14T17:21:05.945Z,52.10
2023-03-14T17:23:35.120Z,53.40
2023-03-14T17:26:03.312Z,55.70
2023-03-14T17:28:31.395Z,56.00
2023-03-14T17:31:05.934Z,57.30
2023-03-14T17:33:34.724Z,61.30
2023-03-14T17:36:03.004Z,63.20
2023-03-14T17:38:31.163Z,65.20
2023-03-14T17:40:59.593Z,73.30
2023-03-14T17:43:27.710Z,75.90
2023-03-14T17:45:59.968Z,78.50
2023-03-14T17:51:02.000Z,81.80
2023-03-14T17:53:30.729Z,82.10
2023-03-14T17:55:58.922Z,78.00
2023-03-14T17:58:27.286Z,78.20
2023-03-14T18:00:56.720Z,78.70
2023-03-14T18:03:25.167Z,81.60
2023-03-14T18:05:54.882Z,81.60
2023-03-14T18:08:23.005Z,83.00
2023-03-14T18:10:55.058Z,83.30
2023-03-14T18:13:23.163Z,84.00
2023-03-14T18:15:52.215Z,87.70
2023-03-14T18:18:23.822Z,88.60
2023-03-14T18:20:55.795Z,90.30
2023-03-14T18:23:34.339Z,90.70
2023-03-14T18:26:03.000Z,90.60
2023-03-14T18:28:34.470Z,90.00
2023-03-14T18:31:03.159Z,89.00
2023-03-14T18:33:37.634Z,87.20
2023-03-14T18:36:08.146Z,87.80
2023-03-14T18:38:36.937Z,85.80
2023-03-14T18:41:06.696Z,88.20
2023-03-14T18:43:35.242Z,89.00
2023-03-14T18:46:03.617Z,88.90
2023-03-14T18:48:32.203Z,89.60
2023-03-14T18:51:01.304Z,87.70
2023-03-14T18:53:32.882Z,88.30
2023-03-14T18:56:01.273Z,89.90
2023-03-14T18:58:29.775Z,87.90
2023-03-14T19:00:59.007Z,89.50
2023-03-14T19:03:27.214Z,90.30
2023-03-14T19:05:55.448Z,91.10
2023-03-14T19:08:25.097Z,90.00
2023-03-14T19:10:55.973Z,89.90
2023-03-14T19:13:24.639Z,89.40
2023-03-14T19:15:53.281Z,90.00
2023-03-14T19:18:21.338Z,91.00
2023-03-14T19:30:55.110Z,91.60
2023-03-14T19:53:17.482Z,91.80
2023-03-14T19:55:46.695Z,91.40
2023-03-14T19:58:14.956Z,91.20
2023-03-14T20:00:45.728Z,91.00
2023-03-14T20:03:13.761Z,91.50
2023-03-14T20:05:44.722Z,91.50
2023-03-14T20:08:12.841Z,91.20
2023-03-14T20:10:41.235Z,89.70
2023-03-14T20:30:53.657Z,90.70
2023-03-14T20:33:21.925Z,90.30
2023-03-14T20:38:26.580Z,90.60
2023-03-14T20:45:56.779Z,90.30
2023-03-14T20:53:23.139Z,89.80
2023-03-14T20:55:52.234Z,89.40
2023-03-14T22:18:15.854Z,98.20
2023-03-14T22:20:44.960Z,98.40
2023-03-14T22:23:13.606Z,99.20
2023-03-14T22:25:43.228Z,99.30
2023-03-14T22:28:12.609Z,99.90
2023-03-14T22:30:40.700Z,99.90
2023-03-14T22:33:09.051Z,99.70
2023-03-14T23:55:10.570Z,58.50
2023-03-14T23:57:38.716Z,58.30
